Rainbow, California
Current Conditions -  °F | °C
As of 10:15 AM on Sunday 25 Jan 2015 (Local Time) from KL18 Reporting Station
Clear Clear  
Wind Chill: 64°   Ceiling: Unl
Heat Index: 64°   Visibility: 10mi
Dew Point: 34°   Wind: 0mph
Humidity: 32%   Direction: NA
Pressure: 30.05"   Gusts: NA
Location:  33.3988°N, 117.264°W
Report Text: KL18 251815Z AUTO 00000KT 10SM CLR 18/01 A3005 RMK AO2
Loading
Personal Weather Stations






























Interactive Weather Map New forecast layout! Learn more

10-Day Weather Forecast

Advertisements
Track Severe Weather on mobile